Latest Coastal Weather Observations for Cape Borda

IDS60701

Issued at 8:05 am CST Thursday 21 August 2014 (issued every 10 minutes, with the page automatically refreshed every 10 minutes)

About coastal observations | Map of coastal stations | Coastal observations for SA | Marine services | Other Formats
Station Details ID: 022823 Name: CAPE BORDA Lat: -35.75 Lon: 136.60 Height: 158.0 m
Data from the previous 72 hours. | See also: Recent months at Cape Borda
Date/Time
CST
Temp

°C
Wind Pressure Rain
since 9am
mm
Weather Cloud Vis
km
Sea
Height
m
Swell
Dir
 
Speed
knots
Gust
knots
hPa Trend Height
m
Period
s
Dir
21/08:00am 9.4 E 10 12 1026.0 - 0.0 - - - - - - -
21/07:30am 8.2 E 9 11 1026.0 - 0.0 - - - - - - -
21/07:00am 7.9 E 9 11 1026.0 - 0.0 - - - - - - -
21/06:30am 7.9 E 10 15 1025.7 - 0.0 - - - - - - -
21/06:00am 7.9 E 9 12 1025.7 F 0.0 Fine Clear 35 <0.1 4.7 9 SW
21/05:30am 7.8 E 9 12 1025.5 - 0.0 - - - - - - -
21/05:00am 8.0 E 10 13 1025.5 - 0.0 - - - - - - -
21/04:30am 7.7 E 9 13 1025.6 - 0.0 - - - - - - -
21/04:00am 7.2 E 10 12 1025.6 - 0.0 - - - - - - -
21/03:30am 6.7 E 9 12 1025.6 - 0.0 - - - - - - -
21/03:00am 7.0 E 9 13 1025.9 - 0.0 - - - - - - -
21/02:30am 7.0 E 9 13 1026.0 - 0.0 - - - - - - -
21/02:00am 7.0 E 10 13 1026.1 - 0.0 - - - - - - -
21/01:30am 7.4 E 11 15 1026.2 - 0.0 - - - - - - -
21/01:00am 7.1 E 11 14 1026.3 - 0.0 - - - - - - -
21/12:30am 6.6 ENE 9 11 1026.4 - 0.0 - - - - - - -
21/12:00am 6.8 E 8 11 1026.8 - 0.0 - - - - - - -
 
Date/Time
CST
Temp

°C
Wind Pressure Rain
since 9am
mm
Weather Cloud Vis
km
Sea
Height
m
Swell
Dir
 
Speed
knots
Gust
knots
hPa Trend Height
m
Period
s
Dir
20/11:30pm 7.1 E 9 11 1026.7 - 0.0 - - - - - - -
20/11:00pm 7.2 E 9 12 1026.8 - 0.0 - - - - - - -
20/10:30pm 6.7 E 7 8 1027.0 - 0.0 - - - - - - -
20/10:00pm 7.1 E 8 9 1027.1 - 0.0 - - - - - - -
20/09:30pm 7.4 E 7 9 1027.2 - 0.0 - - - - - - -
20/09:00pm 8.2 E 8 9 1027.4 - 0.0 - - - - - - -
20/08:30pm 9.0 E 9 13 1026.9 - 0.0 - - - - - - -
20/08:00pm 9.0 ESE 7 9 1026.9 - 0.0 - - - - - - -
20/07:30pm 9.5 E 6 8 1026.7 - 0.0 - - - - - - -
20/07:00pm 9.9 ESE 6 8 1026.5 - 0.0 - - - - - - -
20/06:30pm 10.3 E 6 9 1026.3 - 0.0 - - - - - - -
20/06:00pm 10.5 ENE 7 10 1026.5 - 0.0 - - - - - - -
20/05:30pm 10.7 ENE 8 11 1026.2 - 0.0 - - - - - - -
20/05:00pm 10.9 ENE 9 11 1026.0 - 0.0 - - - - - - -
20/04:30pm 11.1 ENE 8 11 1026.0 - 0.0 - - - - - - -
20/04:00pm 11.3 ENE 9 13 1025.9 - 0.0 - - - - - - -
20/03:30pm 11.7 ENE 9 13 1026.0 - 0.0 - - - - - - -
20/03:00pm 12.3 NE 10 14 1026.2 S 0.0 Distant precip. Mostly cloudy 35 <0.1 4.1 10 SW
20/02:30pm 12.2 NE 9 13 1026.2 - 0.0 - - - - - - -
20/02:00pm 12.1 NE 10 13 1026.2 - 0.0 - - - - - - -
20/01:30pm 12.2 NE 8 11 1026.4 - 0.0 - - - - - - -
20/01:00pm 11.9 ENE 9 13 1026.8 - 0.0 - - - - - - -
20/12:30pm 12.3 NE 10 14 1027.1 - 0.0 - - - - - - -
20/12:00pm 12.2 ENE 9 13 1027.7 - 0.0 - - - - - - -
20/11:30am 11.6 NE 9 13 1027.7 - 0.0 - - - - - - -
20/11:00am 12.8 ENE 10 13 1027.8 - 0.0 - - - - - - -
20/10:30am 11.5 NE 10 16 1028.0 - 0.0 - - - - - - -
20/10:00am 11.7 ENE 9 13 1028.0 - 0.0 - - - - - - -
20/09:30am 11.9 ENE 7 11 1027.8 - 0.0 - - - - - - -
20/09:00am 10.8 ENE 9 13 1028.0 R 0.0 Fine Partly cloudy 25 <0.1 4.4 10 SW
20/08:30am 8.9 ESE 6 8 1027.7 - 0.0 - - - - - - -
20/08:00am 8.2 E 7 8 1027.3 - 0.0 - - - - - - -
20/07:30am 8.0 ESE 7 9 1027.0 - 0.0 - - - - - - -
20/07:00am 7.7 SE 7 9 1026.7 - 0.0 - - - - - - -
20/06:30am 8.5 ENE 7 9 1026.3 - 0.0 - - - - - - -
20/06:00am 8.8 ENE 7 10 1026.5 F 0.0 Fine Mostly cloudy 25 <0.1 3.1 10 SW
20/05:30am 8.8 E 6 9 1026.2 - 0.0 - - - - - - -
20/05:00am 8.1 ESE 7 8 1026.2 - 0.0 - - - - - - -
20/04:30am 8.2 E 6 7 1026.2 - 0.0 - - - - - - -
20/04:00am 7.8 E 5 7 1026.2 - 0.0 - - - - - - -
20/03:30am 6.8 ESE 7 8 1026.2 - 0.0 - - - - - - -
20/03:00am 8.0 E 7 9 1026.5 - 0.0 - - - - - - -
20/02:30am 7.9 E 6 8 1026.5 - 0.0 - - - - - - -
20/02:00am 7.2 E 6 8 1026.6 - 0.0 - - - - - - -
20/01:30am 6.7 ESE 6 8 1026.6 - 0.0 - - - - - - -
20/01:00am 6.0 E 7 9 1026.7 - 0.0 - - - - - - -
20/12:30am 5.0 ESE 7 8 1026.9 - 0.0 - - - - - - -
20/12:00am 4.4 ESE 8 8 1027.2 - 0.0 - - - - - - -
 
Date/Time
CST
Temp

°C
Wind Pressure Rain
since 9am
mm
Weather Cloud Vis
km
Sea
Height
m
Swell
Dir
 
Speed
knots
Gust
knots
hPa Trend Height
m
Period
s
Dir
19/11:30pm 4.4 ESE 8 8 1026.8 - 0.0 - - - - - - -
19/11:00pm 5.1 ESE 8 9 1026.9 - 0.0 - - - - - - -
19/10:30pm 5.3 ESE 8 9 1027.0 - 0.0 - - - - - - -
19/10:00pm 5.9 ESE 8 9 1027.0 - 0.0 - - - - - - -
19/09:30pm 5.9 ESE 8 9 1027.0 - 0.0 - - - - - - -
19/09:00pm 6.9 SE 9 11 1027.0 - 0.0 - - - - - - -
19/08:30pm 6.5 SE 10 11 1026.9 - 0.0 - - - - - - -
19/08:00pm 6.8 SE 9 10 1026.8 - 0.0 - - - - - - -
19/07:30pm 8.0 SE 8 10 1026.8 - 0.0 - - - - - - -
19/07:00pm 8.7 SE 9 11 1026.6 - 0.0 - - - - - - -
19/06:30pm 8.6 ESE 8 9 1026.5 - 0.0 - - - - - - -
19/06:00pm 9.9 ESE 6 8 1026.3 - 0.0 - - - - - - -
19/05:30pm 11.5 E 4 6 1025.7 - 0.0 - - - - - - -
19/05:00pm 12.0 CALM 0 0 1025.4 - 0.0 - - - - - - -
19/04:30pm 11.9 N 4 5 1025.4 - 0.0 - - - - - - -
19/04:00pm 12.2 WNW 5 7 1025.3 - 0.0 - - - - - - -
19/03:30pm 12.3 W 5 7 1025.4 - 0.0 - - - - - - -
19/03:00pm 12.8 WNW 5 8 1025.5 R 0.0 Fine Mostly cloudy 35 <0.1 4.5 11 SW
19/02:30pm 12.9 W 7 8 1025.1 - 0.0 - - - - - - -
19/02:00pm 13.0 W 7 10 1025.1 - 0.0 - - - - - - -
19/01:30pm 13.2 E 5 8 1025.3 - 0.0 - - - - - - -
19/01:00pm 13.2 E 5 7 1025.6 - 0.0 - - - - - - -
19/12:30pm 12.6 N 7 11 1026.0 - 0.0 - - - - - - -
19/12:00pm 12.6 NNE 7 9 1026.6 - 0.0 - - - - - - -
19/11:30am 12.3 NE 7 9 1026.6 - 0.0 - - - - - - -
19/11:00am 12.5 NE 8 11 1026.7 - 0.0 - - - - - - -
19/10:30am 12.3 E 6 9 1026.9 - 0.0 - - - - - - -
19/10:00am 11.8 ENE 5 8 1026.9 - 0.0 - - - - - - -
19/09:30am 11.4 ENE 7 9 1026.8 - 0.0 - - - - - - -
19/09:00am 11.0 E 6 9 1026.9 R 0.8 Distant precip. Mostly cloudy 30 <0.1 4.9 11 SW
19/08:30am 10.5 E 7 9 1026.4 - 0.8 - - - - - - -
19/08:00am 9.5 E 7 10 1026.2 - 0.8 - - - - - - -
19/07:30am 7.7 ESE 8 9 1026.0 - 0.8 - - - - - - -
19/07:00am 6.0 ESE 8 9 1025.7 - 0.8 - - - - - - -
19/06:30am 5.8 ESE 9 10 1025.4 - 0.8 - - - - - - -
19/06:00am 5.7 ESE 9 10 1025.5 S 0.8 Fine Mostly clear 30 <0.1 4.4 12 SW
19/05:30am 6.1 ESE 9 9 1025.0 - 0.8 - - - - - - -
19/05:00am 7.3 E 8 9 1024.9 - 0.8 - - - - - - -
19/04:30am 7.6 ENE 8 9 1024.9 - 0.8 - - - - - - -
19/04:00am 8.0 E 8 9 1024.9 - 0.8 - - - - - - -
19/03:30am 8.0 E 8 10 1025.0 - 0.8 - - - - - - -
19/03:00am 7.7 ESE 7 8 1025.2 - 0.8 - - - - - - -
19/02:30am 8.7 E 6 8 1025.3 - 0.8 - - - - - - -
19/02:00am 8.3 E 7 8 1025.5 - 0.8 - - - - - - -
19/01:30am 7.9 E 6 7 1025.6 - 0.8 - - - - - - -
19/01:00am 7.7 ESE 9 10 1025.6 - 0.8 - - - - - - -
19/12:30am 7.8 E 8 9 1025.5 - 0.8 - - - - - - -
19/12:00am 7.1 E 8 9 1025.7 - 0.8 - - - - - - -
 
Date/Time
CST
Temp

°C
Wind Pressure Rain
since 9am
mm
Weather Cloud Vis
km
Sea
Height
m
Swell
Dir
 
Speed
knots
Gust
knots
hPa Trend Height
m
Period
s
Dir
18/11:30pm 7.1 E 8 9 1025.6 - 0.8 - - - - - - -
18/11:00pm 7.2 E 8 9 1025.6 - 0.8 - - - - - - -
18/10:30pm 7.4 E 7 8 1025.9 - 0.8 - - - - - - -
18/10:00pm 7.7 ESE 7 7 1025.9 - 0.8 - - - - - - -
18/09:30pm 8.1 E 7 8 1025.7 - 0.8 - - - - - - -
18/09:00pm 8.2 ESE 8 9 1025.8 - 0.8 - - - - - - -
18/08:30pm 7.3 ESE 7 8 1025.4 - 0.8 - - - - - - -
18/08:00pm 7.4 ESE 8 9 1025.1 - 0.8 - - - - - - -
18/07:30pm 7.9 ESE 8 9 1024.9 - 0.8 - - - - - - -
18/07:00pm 8.2 SE 8 8 1024.7 - 0.8 - - - - - - -
18/06:30pm 8.8 SSE 7 8 1024.6 - 0.8 - - - - - - -
18/06:00pm 9.6 SSE 6 7 1024.5 - 0.8 - - - - - - -
18/05:30pm 11.5 SSE 7 9 1024.0 - 0.8 - - - - - - -
18/05:00pm 11.6 S 4 6 1023.7 - 0.8 - - - - - - -
18/04:30pm 12.6 S 7 10 1023.6 - 0.8 - - - - - - -
18/04:00pm 13.2 S 10 14 1023.4 - 0.8 - - - - - - -
18/03:30pm 12.9 SSW 9 13 1023.3 - 0.8 - - - - - - -
18/03:00pm 12.2 SW 12 15 1023.6 R 0.8 Distant precip. Partly cloudy 30 <0.1 3.9 9 SW
18/02:30pm 11.6 SW 11 15 1023.3 - 0.8 - - - - - - -
18/02:00pm 11.9 SW 13 17 1023.4 - 0.8 - - - - - - -
18/01:30pm 11.7 SW 9 14 1023.7 - 0.4 - - - - - - -
18/01:00pm 13.2 S 8 12 1023.7 - 0.0 - - - - - - -
18/12:30pm 12.1 S 7 10 1024.1 - 0.0 - - - - - - -
18/12:00pm 12.3 SSW 8 11 1024.7 - 0.0 - - - - - - -
18/11:30am 12.6 WSW 7 11 1024.7 - 0.0 - - - - - - -
18/11:00am 13.2 SSE 5 9 1025.0 - 0.0 - - - - - - -
18/10:30am 12.1 SSW 5 9 1025.1 - 0.0 - - - - - - -
18/10:00am 11.2 SSW 5 7 1025.2 - 0.0 - - - - - - -
18/09:30am 11.2 SSE 7 9 1025.1 - 0.0 - - - - - - -
18/09:00am 10.5 SSE 7 9 1025.2 R 2.6 Fine Mostly clear 30 <0.1 3.8 8 SW
18/08:30am 9.3 SSE 8 10 1024.9 - 2.6 - - - - - - -

Other Formats:

Comma delimited format used in spreadsheet applications
http://www.bom.gov.au/fwo/IDS60701/IDS60701.95805.axf

JavaScript Object Notation format (JSON) in row-major order
http://www.bom.gov.au/fwo/IDS60701/IDS60701.95805.json